sensor_id;sensor_type;location;lat;lon;timestamp;temperature;humidity
21092;DHT22;10704;42.678;23.288;2023-03-12T00:00:50;2.50;99.90
21092;DHT22;10704;42.678;23.288;2023-03-12T00:03:16;2.50;99.90
21092;DHT22;10704;42.678;23.288;2023-03-12T00:05:43;2.50;99.90
21092;DHT22;10704;42.678;23.288;2023-03-12T00:08:09;2.50;99.90
21092;DHT22;10704;42.678;23.288;2023-03-12T00:10:38;2.50;99.90
21092;DHT22;10704;42.678;23.288;2023-03-12T00:13:04;2.50;99.90
21092;DHT22;10704;42.678;23.288;2023-03-12T00:15:30;2.50;99.90
21092;DHT22;10704;42.678;23.288;2023-03-12T00:17:56;2.50;99.90
21092;DHT22;10704;42.678;23.288;2023-03-12T00:20:22;2.40;99.90
21092;DHT22;10704;42.678;23.288;2023-03-12T00:22:49;2.40;99.90
21092;DHT22;10704;42.678;23.288;2023-03-12T00:25:18;2.40;99.90
21092;DHT22;10704;42.678;23.288;2023-03-12T00:27:45;2.40;99.90
21092;DHT22;10704;42.678;23.288;2023-03-12T00:30:12;2.40;99.90
21092;DHT22;10704;42.678;23.288;2023-03-12T00:32:38;2.40;99.90
21092;DHT22;10704;42.678;23.288;2023-03-12T00:35:05;2.40;99.90
21092;DHT22;10704;42.678;23.288;2023-03-12T00:37:31;2.40;99.90
21092;DHT22;10704;42.678;23.288;2023-03-12T00:39:59;2.40;99.90
21092;DHT22;10704;42.678;23.288;2023-03-12T00:42:27;2.40;99.90
21092;DHT22;10704;42.678;23.288;2023-03-12T00:44:53;2.40;99.90
21092;DHT22;10704;42.678;23.288;2023-03-12T00:47:19;2.40;99.90
21092;DHT22;10704;42.678;23.288;2023-03-12T00:49:45;2.40;99.90
21092;DHT22;10704;42.678;23.288;2023-03-12T00:52:11;2.40;99.90
21092;DHT22;10704;42.678;23.288;2023-03-12T00:54:37;2.40;99.90
21092;DHT22;10704;42.678;23.288;2023-03-12T00:57:04;2.40;99.90
21092;DHT22;10704;42.678;23.288;2023-03-12T00:59:31;2.40;99.90
21092;DHT22;10704;42.678;23.288;2023-03-12T01:01:57;2.40;99.90
21092;DHT22;10704;42.678;23.288;2023-03-12T01:04:23;2.30;99.90
21092;DHT22;10704;42.678;23.288;2023-03-12T01:06:49;2.30;99.90
21092;DHT22;10704;42.678;23.288;2023-03-12T01:09:15;2.20;99.90
21092;DHT22;10704;42.678;23.288;2023-03-12T01:11:41;2.10;99.90
21092;DHT22;10704;42.678;23.288;2023-03-12T01:14:08;2.10;99.90
21092;DHT22;10704;42.678;23.288;2023-03-12T01:16:33;2.10;99.90
21092;DHT22;10704;42.678;23.288;2023-03-12T01:19:01;2.10;99.90
21092;DHT22;10704;42.678;23.288;2023-03-12T01:21:29;2.10;99.90
21092;DHT22;10704;42.678;23.288;2023-03-12T01:23:56;2.10;99.90
21092;DHT22;10704;42.678;23.288;2023-03-12T01:26:22;2.10;99.90
21092;DHT22;10704;42.678;23.288;2023-03-12T01:28:49;2.10;99.90
21092;DHT22;10704;42.678;23.288;2023-03-12T01:31:17;2.00;99.90
21092;DHT22;10704;42.678;23.288;2023-03-12T01:33:44;2.00;99.90
21092;DHT22;10704;42.678;23.288;2023-03-12T01:36:24;1.90;99.90
21092;DHT22;10704;42.678;23.288;2023-03-12T01:38:54;2.00;99.90
21092;DHT22;10704;42.678;23.288;2023-03-12T01:41:21;2.00;99.90
21092;DHT22;10704;42.678;23.288;2023-03-12T01:43:48;2.10;99.90
21092;DHT22;10704;42.678;23.288;2023-03-12T01:49:14;1.90;99.90
21092;DHT22;10704;42.678;23.288;2023-03-12T01:54:26;1.90;99.90
21092;DHT22;10704;42.678;23.288;2023-03-12T01:56:55;1.90;99.90
21092;DHT22;10704;42.678;23.288;2023-03-12T01:59:36;1.90;99.90
21092;DHT22;10704;42.678;23.288;2023-03-12T02:02:04;1.90;99.90
21092;DHT22;10704;42.678;23.288;2023-03-12T02:04:31;1.90;99.90
21092;DHT22;10704;42.678;23.288;2023-03-12T02:07:08;1.90;99.90
21092;DHT22;10704;42.678;23.288;2023-03-12T02:09:37;1.80;99.90
21092;DHT22;10704;42.678;23.288;2023-03-12T02:12:05;1.80;99.90
21092;DHT22;10704;42.678;23.288;2023-03-12T02:14:31;1.90;99.90
21092;DHT22;10704;42.678;23.288;2023-03-12T02:16:57;1.90;99.90
21092;DHT22;10704;42.678;23.288;2023-03-12T02:19:58;1.90;99.90
21092;DHT22;10704;42.678;23.288;2023-03-12T02:22:25;1.90;99.90
21092;DHT22;10704;42.678;23.288;2023-03-12T02:25:12;1.80;99.90
21092;DHT22;10704;42.678;23.288;2023-03-12T02:27:38;1.80;99.90
21092;DHT22;10704;42.678;23.288;2023-03-12T02:30:04;1.80;99.90
21092;DHT22;10704;42.678;23.288;2023-03-12T02:32:37;1.80;99.90
21092;DHT22;10704;42.678;23.288;2023-03-12T02:35:05;1.90;99.90
21092;DHT22;10704;42.678;23.288;2023-03-12T02:37:31;1.80;99.90
21092;DHT22;10704;42.678;23.288;2023-03-12T02:40:09;1.80;99.90
21092;DHT22;10704;42.678;23.288;2023-03-12T02:42:38;1.90;99.90
21092;DHT22;10704;42.678;23.288;2023-03-12T02:45:04;1.80;99.90
21092;DHT22;10704;42.678;23.288;2023-03-12T02:47:31;1.80;99.90
21092;DHT22;10704;42.678;23.288;2023-03-12T02:49:57;1.80;99.90
21092;DHT22;10704;42.678;23.288;2023-03-12T02:52:23;1.80;99.90
21092;DHT22;10704;42.678;23.288;2023-03-12T02:54:49;1.80;99.90
21092;DHT22;10704;42.678;23.288;2023-03-12T02:57:15;1.80;99.90
21092;DHT22;10704;42.678;23.288;2023-03-12T02:59:42;1.80;99.90
21092;DHT22;10704;42.678;23.288;2023-03-12T03:02:08;1.70;99.90
21092;DHT22;10704;42.678;23.288;2023-03-12T03:04:35;1.70;99.90
21092;DHT22;10704;42.678;23.288;2023-03-12T03:07:01;1.60;99.90
21092;DHT22;10704;42.678;23.288;2023-03-12T03:09:27;1.60;99.90
21092;DHT22;10704;42.678;23.288;2023-03-12T03:11:53;1.60;99.90
21092;DHT22;10704;42.678;23.288;2023-03-12T03:14:19;1.60;99.90
21092;DHT22;10704;42.678;23.288;2023-03-12T03:16:48;1.60;99.90
21092;DHT22;10704;42.678;23.288;2023-03-12T03:19:17;1.60;99.90
21092;DHT22;10704;42.678;23.288;2023-03-12T03:21:43;1.60;99.90
21092;DHT22;10704;42.678;23.288;2023-03-12T03:24:09;1.50;99.90
21092;DHT22;10704;42.678;23.288;2023-03-12T03:26:35;1.50;99.90
21092;DHT22;10704;42.678;23.288;2023-03-12T03:29:01;1.60;99.90
21092;DHT22;10704;42.678;23.288;2023-03-12T03:31:27;1.50;99.90
21092;DHT22;10704;42.678;23.288;2023-03-12T03:33:53;1.50;99.90
21092;DHT22;10704;42.678;23.288;2023-03-12T03:36:19;1.50;99.90
21092;DHT22;10704;42.678;23.288;2023-03-12T03:39:00;1.40;99.90
21092;DHT22;10704;42.678;23.288;2023-03-12T03:41:29;1.50;99.90
21092;DHT22;10704;42.678;23.288;2023-03-12T03:43:57;1.50;99.90
21092;DHT22;10704;42.678;23.288;2023-03-12T03:46:24;1.50;99.90
21092;DHT22;10704;42.678;23.288;2023-03-12T03:48:56;1.50;99.90
21092;DHT22;10704;42.678;23.288;2023-03-12T03:51:22;1.50;99.90
21092;DHT22;10704;42.678;23.288;2023-03-12T03:53:53;1.40;99.90
21092;DHT22;10704;42.678;23.288;2023-03-12T03:56:19;1.40;99.90
21092;DHT22;10704;42.678;23.288;2023-03-12T03:58:51;1.40;99.90
21092;DHT22;10704;42.678;23.288;2023-03-12T04:01:19;1.40;99.90
21092;DHT22;10704;42.678;23.288;2023-03-12T04:03:46;1.30;99.90
21092;DHT22;10704;42.678;23.288;2023-03-12T04:06:12;1.30;99.90
21092;DHT22;10704;42.678;23.288;2023-03-12T04:08:39;1.30;99.90
21092;DHT22;10704;42.678;23.288;2023-03-12T04:11:10;1.30;99.90
21092;DHT22;10704;42.678;23.288;2023-03-12T04:13:37;1.20;99.90
21092;DHT22;10704;42.678;23.288;2023-03-12T04:16:04;1.30;99.90
21092;DHT22;10704;42.678;23.288;2023-03-12T04:18:30;1.20;99.90
21092;DHT22;10704;42.678;23.288;2023-03-12T04:20:58;1.30;99.90
21092;DHT22;10704;42.678;23.288;2023-03-12T04:23:24;1.20;99.90
21092;DHT22;10704;42.678;23.288;2023-03-12T04:25:50;1.20;99.90
21092;DHT22;10704;42.678;23.288;2023-03-12T04:28:16;1.20;99.90
21092;DHT22;10704;42.678;23.288;2023-03-12T04:30:42;1.20;99.90
21092;DHT22;10704;42.678;23.288;2023-03-12T04:33:08;1.20;99.90
21092;DHT22;10704;42.678;23.288;2023-03-12T04:35:34;1.20;99.90
21092;DHT22;10704;42.678;23.288;2023-03-12T04:38:01;1.10;99.90
21092;DHT22;10704;42.678;23.288;2023-03-12T04:40:29;1.10;99.90
21092;DHT22;10704;42.678;23.288;2023-03-12T04:42:56;1.10;99.90
21092;DHT22;10704;42.678;23.288;2023-03-12T04:45:22;1.10;99.90
21092;DHT22;10704;42.678;23.288;2023-03-12T04:47:48;1.10;99.90
21092;DHT22;10704;42.678;23.288;2023-03-12T04:50:14;1.00;99.90
21092;DHT22;10704;42.678;23.288;2023-03-12T04:52:40;1.00;99.90
21092;DHT22;10704;42.678;23.288;2023-03-12T04:55:07;1.00;99.90
21092;DHT22;10704;42.678;23.288;2023-03-12T04:57:33;1.00;99.90
21092;DHT22;10704;42.678;23.288;2023-03-12T04:59:59;1.00;99.90
21092;DHT22;10704;42.678;23.288;2023-03-12T05:02:26;1.00;99.90
21092;DHT22;10704;42.678;23.288;2023-03-12T05:04:55;1.10;99.90
21092;DHT22;10704;42.678;23.288;2023-03-12T05:07:21;1.20;99.90
21092;DHT22;10704;42.678;23.288;2023-03-12T05:09:47;1.10;99.90
21092;DHT22;10704;42.678;23.288;2023-03-12T05:12:13;1.10;99.90
21092;DHT22;10704;42.678;23.288;2023-03-12T05:14:39;1.10;99.90
21092;DHT22;10704;42.678;23.288;2023-03-12T05:17:05;1.20;99.90
21092;DHT22;10704;42.678;23.288;2023-03-12T05:19:33;1.20;99.90
21092;DHT22;10704;42.678;23.288;2023-03-12T05:21:59;1.20;99.90
21092;DHT22;10704;42.678;23.288;2023-03-12T05:24:24;1.30;99.90
21092;DHT22;10704;42.678;23.288;2023-03-12T05:26:50;1.30;99.90
21092;DHT22;10704;42.678;23.288;2023-03-12T05:29:20;1.40;99.90
21092;DHT22;10704;42.678;23.288;2023-03-12T05:31:51;1.50;99.90
21092;DHT22;10704;42.678;23.288;2023-03-12T05:34:17;1.40;99.90
21092;DHT22;10704;42.678;23.288;2023-03-12T05:36:45;1.50;99.90
21092;DHT22;10704;42.678;23.288;2023-03-12T05:39:13;1.50;99.90
21092;DHT22;10704;42.678;23.288;2023-03-12T05:41:39;1.50;99.90
21092;DHT22;10704;42.678;23.288;2023-03-12T05:44:11;1.60;99.90
21092;DHT22;10704;42.678;23.288;2023-03-12T05:46:39;1.80;99.90
21092;DHT22;10704;42.678;23.288;2023-03-12T05:49:05;1.90;99.90
21092;DHT22;10704;42.678;23.288;2023-03-12T05:51:33;1.90;99.90
21092;DHT22;10704;42.678;23.288;2023-03-12T05:53:59;1.90;99.90
21092;DHT22;10704;42.678;23.288;2023-03-12T05:56:25;1.90;99.90
21092;DHT22;10704;42.678;23.288;2023-03-12T05:58:51;2.00;99.90
21092;DHT22;10704;42.678;23.288;2023-03-12T06:01:22;2.10;99.90
21092;DHT22;10704;42.678;23.288;2023-03-12T06:03:50;2.10;99.90
21092;DHT22;10704;42.678;23.288;2023-03-12T06:06:16;2.20;99.90
21092;DHT22;10704;42.678;23.288;2023-03-12T06:08:42;2.30;99.90
21092;DHT22;10704;42.678;23.288;2023-03-12T06:11:11;2.50;99.90
21092;DHT22;10704;42.678;23.288;2023-03-12T06:13:37;2.50;99.90
21092;DHT22;10704;42.678;23.288;2023-03-12T06:16:21;2.40;99.90
21092;DHT22;10704;42.678;23.288;2023-03-12T06:18:51;2.40;99.90
21092;DHT22;10704;42.678;23.288;2023-03-12T06:21:20;2.50;99.90
21092;DHT22;10704;42.678;23.288;2023-03-12T06:23:48;2.50;99.90
21092;DHT22;10704;42.678;23.288;2023-03-12T06:26:20;2.50;99.90
21092;DHT22;10704;42.678;23.288;2023-03-12T06:28:47;2.60;99.90
21092;DHT22;10704;42.678;23.288;2023-03-12T06:31:17;2.70;99.90
21092;DHT22;10704;42.678;23.288;2023-03-12T06:33:44;2.80;99.90
21092;DHT22;10704;42.678;23.288;2023-03-12T06:36:10;2.80;99.90
21092;DHT22;10704;42.678;23.288;2023-03-12T06:38:39;2.80;99.90
21092;DHT22;10704;42.678;23.288;2023-03-12T06:41:08;2.90;99.90
21092;DHT22;10704;42.678;23.288;2023-03-12T06:43:36;3.10;99.90
21092;DHT22;10704;42.678;23.288;2023-03-12T06:46:03;3.10;99.90
21092;DHT22;10704;42.678;23.288;2023-03-12T06:48:31;3.10;99.90
21092;DHT22;10704;42.678;23.288;2023-03-12T06:51:02;3.10;99.90
21092;DHT22;10704;42.678;23.288;2023-03-12T06:53:29;3.00;99.90
21092;DHT22;10704;42.678;23.288;2023-03-12T06:55:55;3.00;99.90
21092;DHT22;10704;42.678;23.288;2023-03-12T06:58:24;3.10;99.90
21092;DHT22;10704;42.678;23.288;2023-03-12T07:00:51;3.10;99.90
21092;DHT22;10704;42.678;23.288;2023-03-12T07:03:16;3.20;99.90
21092;DHT22;10704;42.678;23.288;2023-03-12T07:05:44;3.30;99.90
21092;DHT22;10704;42.678;23.288;2023-03-12T07:08:10;3.20;99.90
21092;DHT22;10704;42.678;23.288;2023-03-12T07:10:36;3.20;99.90
21092;DHT22;10704;42.678;23.288;2023-03-12T07:13:05;3.20;99.90
21092;DHT22;10704;42.678;23.288;2023-03-12T07:15:31;3.30;99.90
21092;DHT22;10704;42.678;23.288;2023-03-12T07:18:07;3.20;99.90
21092;DHT22;10704;42.678;23.288;2023-03-12T07:20:36;3.60;99.90
21092;DHT22;10704;42.678;23.288;2023-03-12T07:23:03;3.70;99.90
21092;DHT22;10704;42.678;23.288;2023-03-12T07:25:29;3.80;99.90
21092;DHT22;10704;42.678;23.288;2023-03-12T07:27:54;4.00;99.90
21092;DHT22;10704;42.678;23.288;2023-03-12T07:30:22;4.00;99.90
21092;DHT22;10704;42.678;23.288;2023-03-12T07:32:48;4.20;99.90
21092;DHT22;10704;42.678;23.288;2023-03-12T07:35:14;4.50;99.90
21092;DHT22;10704;42.678;23.288;2023-03-12T07:37:40;4.40;98.90
21092;DHT22;10704;42.678;23.288;2023-03-12T07:40:06;4.70;99.30
21092;DHT22;10704;42.678;23.288;2023-03-12T07:42:33;5.00;96.20
21092;DHT22;10704;42.678;23.288;2023-03-12T07:44:59;4.70;96.70
21092;DHT22;10704;42.678;23.288;2023-03-12T07:47:25;4.80;96.10
21092;DHT22;10704;42.678;23.288;2023-03-12T07:49:51;4.90;96.90
21092;DHT22;10704;42.678;23.288;2023-03-12T07:52:18;4.70;94.60
21092;DHT22;10704;42.678;23.288;2023-03-12T07:54:44;4.40;94.10
21092;DHT22;10704;42.678;23.288;2023-03-12T07:57:10;4.50;94.10
21092;DHT22;10704;42.678;23.288;2023-03-12T07:59:36;4.70;92.00
21092;DHT22;10704;42.678;23.288;2023-03-12T08:02:02;4.90;91.80
21092;DHT22;10704;42.678;23.288;2023-03-12T08:04:28;5.00;90.40
21092;DHT22;10704;42.678;23.288;2023-03-12T08:06:54;5.10;89.10
21092;DHT22;10704;42.678;23.288;2023-03-12T08:09:20;4.70;89.10
21092;DHT22;10704;42.678;23.288;2023-03-12T08:11:46;4.80;88.70
21092;DHT22;10704;42.678;23.288;2023-03-12T08:14:11;4.80;88.70
21092;DHT22;10704;42.678;23.288;2023-03-12T08:16:37;4.90;90.20
21092;DHT22;10704;42.678;23.288;2023-03-12T08:19:03;5.00;90.00
21092;DHT22;10704;42.678;23.288;2023-03-12T08:21:32;5.40;90.00
21092;DHT22;10704;42.678;23.288;2023-03-12T08:23:58;5.70;88.70
21092;DHT22;10704;42.678;23.288;2023-03-12T08:26:24;6.60;88.60
21092;DHT22;10704;42.678;23.288;2023-03-12T08:28:50;6.90;84.20
21092;DHT22;10704;42.678;23.288;2023-03-12T08:31:16;7.10;81.10
21092;DHT22;10704;42.678;23.288;2023-03-12T08:33:42;7.30;82.40
21092;DHT22;10704;42.678;23.288;2023-03-12T08:36:09;6.40;81.60
21092;DHT22;10704;42.678;23.288;2023-03-12T08:38:35;5.90;81.30
21092;DHT22;10704;42.678;23.288;2023-03-12T08:41:01;6.10;82.60
21092;DHT22;10704;42.678;23.288;2023-03-12T08:43:27;6.90;78.90
21092;DHT22;10704;42.678;23.288;2023-03-12T08:46:01;7.30;78.50
21092;DHT22;10704;42.678;23.288;2023-03-12T08:48:29;7.50;73.90
21092;DHT22;10704;42.678;23.288;2023-03-12T08:50:57;7.20;72.10
21092;DHT22;10704;42.678;23.288;2023-03-12T08:53:24;7.70;73.90
21092;DHT22;10704;42.678;23.288;2023-03-12T08:55:54;7.80;73.00
21092;DHT22;10704;42.678;23.288;2023-03-12T08:58:22;8.10;70.70
21092;DHT22;10704;42.678;23.288;2023-03-12T09:00:50;8.00;69.90
21092;DHT22;10704;42.678;23.288;2023-03-12T09:03:16;7.70;69.00
21092;DHT22;10704;42.678;23.288;2023-03-12T09:05:43;7.90;71.80
21092;DHT22;10704;42.678;23.288;2023-03-12T09:08:10;8.70;69.60
21092;DHT22;10704;42.678;23.288;2023-03-12T09:10:36;8.90;68.20
21092;DHT22;10704;42.678;23.288;2023-03-12T09:13:03;8.60;67.40
21092;DHT22;10704;42.678;23.288;2023-03-12T09:15:29;9.30;66.90
21092;DHT22;10704;42.678;23.288;2023-03-12T09:17:56;9.10;67.70
21092;DHT22;10704;42.678;23.288;2023-03-12T09:20:23;8.60;67.20
21092;DHT22;10704;42.678;23.288;2023-03-12T09:22:49;8.50;68.40
21092;DHT22;10704;42.678;23.288;2023-03-12T09:25:16;9.20;68.10
21092;DHT22;10704;42.678;23.288;2023-03-12T09:27:46;10.50;65.30
21092;DHT22;10704;42.678;23.288;2023-03-12T09:30:15;10.40;62.50
21092;DHT22;10704;42.678;23.288;2023-03-12T09:32:41;10.60;60.80
21092;DHT22;10704;42.678;23.288;2023-03-12T09:35:10;10.30;61.40
21092;DHT22;10704;42.678;23.288;2023-03-12T09:37:36;10.20;60.30
21092;DHT22;10704;42.678;23.288;2023-03-12T09:40:03;10.80;59.50
21092;DHT22;10704;42.678;23.288;2023-03-12T09:42:52;11.30;58.70
21092;DHT22;10704;42.678;23.288;2023-03-12T09:45:34;12.00;58.00
21092;DHT22;10704;42.678;23.288;2023-03-12T09:48:04;12.20;57.60
21092;DHT22;10704;42.678;23.288;2023-03-12T09:50:37;11.80;56.40
21092;DHT22;10704;42.678;23.288;2023-03-12T09:53:27;11.50;57.00
21092;DHT22;10704;42.678;23.288;2023-03-12T09:55:57;11.80;57.00
21092;DHT22;10704;42.678;23.288;2023-03-12T10:04:40;12.80;56.10
21092;DHT22;10704;42.678;23.288;2023-03-12T10:07:12;12.10;53.10
21092;DHT22;10704;42.678;23.288;2023-03-12T10:10:02;11.80;54.10
21092;DHT22;10704;42.678;23.288;2023-03-12T10:18:32;13.00;51.10
21092;DHT22;10704;42.678;23.288;2023-03-12T10:21:14;14.40;50.90
21092;DHT22;10704;42.678;23.288;2023-03-12T10:24:35;13.80;49.70
21092;DHT22;10704;42.678;23.288;2023-03-12T10:26:55;13.80;49.90
21092;DHT22;10704;42.678;23.288;2023-03-12T10:29:26;13.50;49.70
21092;DHT22;10704;42.678;23.288;2023-03-12T10:36:57;14.00;50.20
21092;DHT22;10704;42.678;23.288;2023-03-12T10:39:24;14.30;47.30
21092;DHT22;10704;42.678;23.288;2023-03-12T10:41:50;15.00;47.50
21092;DHT22;10704;42.678;23.288;2023-03-12T10:44:21;15.10;46.40
21092;DHT22;10704;42.678;23.288;2023-03-12T10:47:27;15.30;46.30
21092;DHT22;10704;42.678;23.288;2023-03-12T10:50:17;13.00;47.70
21092;DHT22;10704;42.678;23.288;2023-03-12T10:52:48;13.30;49.00
21092;DHT22;10704;42.678;23.288;2023-03-12T10:55:26;14.10;46.90
21092;DHT22;10704;42.678;23.288;2023-03-12T10:57:54;15.10;45.90
21092;DHT22;10704;42.678;23.288;2023-03-12T11:00:25;15.40;45.30
21092;DHT22;10704;42.678;23.288;2023-03-12T11:03:00;15.80;44.90
21092;DHT22;10704;42.678;23.288;2023-03-12T11:05:29;15.90;44.50
21092;DHT22;10704;42.678;23.288;2023-03-12T11:07:56;15.70;43.70
21092;DHT22;10704;42.678;23.288;2023-03-12T11:10:41;15.90;43.40
21092;DHT22;10704;42.678;23.288;2023-03-12T11:13:36;15.20;43.30
21092;DHT22;10704;42.678;23.288;2023-03-12T11:18:33;14.80;44.00
21092;DHT22;10704;42.678;23.288;2023-03-12T11:21:11;14.80;44.70
21092;DHT22;10704;42.678;23.288;2023-03-12T11:23:44;15.10;44.20
21092;DHT22;10704;42.678;23.288;2023-03-12T11:26:22;13.70;45.50
21092;DHT22;10704;42.678;23.288;2023-03-12T11:29:04;13.30;47.80
21092;DHT22;10704;42.678;23.288;2023-03-12T11:31:40;11.60;48.30
21092;DHT22;10704;42.678;23.288;2023-03-12T11:34:17;11.90;48.30
21092;DHT22;10704;42.678;23.288;2023-03-12T11:37:22;12.00;47.40
21092;DHT22;10704;42.678;23.288;2023-03-12T11:51:26;14.50;45.90
21092;DHT22;10704;42.678;23.288;2023-03-12T11:54:30;14.20;43.90
21092;DHT22;10704;42.678;23.288;2023-03-12T11:57:12;12.50;46.20
21092;DHT22;10704;42.678;23.288;2023-03-12T12:05:11;13.30;47.10
21092;DHT22;10704;42.678;23.288;2023-03-12T12:11:27;10.70;51.00
21092;DHT22;10704;42.678;23.288;2023-03-12T12:19:21;12.20;51.80
21092;DHT22;10704;42.678;23.288;2023-03-12T12:28:02;12.50;51.30
21092;DHT22;10704;42.678;23.288;2023-03-12T12:33:45;12.70;50.70
21092;DHT22;10704;42.678;23.288;2023-03-12T12:36:16;13.00;50.00
21092;DHT22;10704;42.678;23.288;2023-03-12T12:38:48;13.50;48.20
21092;DHT22;10704;42.678;23.288;2023-03-12T12:41:21;12.90;48.10
21092;DHT22;10704;42.678;23.288;2023-03-12T12:43:52;12.30;48.00
21092;DHT22;10704;42.678;23.288;2023-03-12T12:46:29;11.60;50.20
21092;DHT22;10704;42.678;23.288;2023-03-12T12:49:11;12.90;49.80
21092;DHT22;10704;42.678;23.288;2023-03-12T12:51:45;12.50;49.00
21092;DHT22;10704;42.678;23.288;2023-03-12T13:02:20;9.60;56.80
21092;DHT22;10704;42.678;23.288;2023-03-12T13:04:47;11.00;54.20
21092;DHT22;10704;42.678;23.288;2023-03-12T13:09:47;9.80;53.70
21092;DHT22;10704;42.678;23.288;2023-03-12T13:14:52;9.10;56.60
21092;DHT22;10704;42.678;23.288;2023-03-12T13:17:23;9.20;56.60
21092;DHT22;10704;42.678;23.288;2023-03-12T13:19:52;9.60;58.20
21092;DHT22;10704;42.678;23.288;2023-03-12T13:22:30;10.20;56.50
21092;DHT22;10704;42.678;23.288;2023-03-12T13:25:06;10.90;55.10
21092;DHT22;10704;42.678;23.288;2023-03-12T13:27:39;11.40;52.90
21092;DHT22;10704;42.678;23.288;2023-03-12T13:43:11;11.30;50.10
21092;DHT22;10704;42.678;23.288;2023-03-12T13:45:54;11.30;52.70
21092;DHT22;10704;42.678;23.288;2023-03-12T13:48:21;12.30;54.30
21092;DHT22;10704;42.678;23.288;2023-03-12T13:50:52;12.30;52.40
21092;DHT22;10704;42.678;23.288;2023-03-12T13:53:24;12.20;52.50
21092;DHT22;10704;42.678;23.288;2023-03-12T13:56:09;12.00;53.10
21092;DHT22;10704;42.678;23.288;2023-03-12T13:58:49;11.60;51.10
21092;DHT22;10704;42.678;23.288;2023-03-12T14:01:28;11.00;53.80
21092;DHT22;10704;42.678;23.288;2023-03-12T14:03:58;12.10;53.90
21092;DHT22;10704;42.678;23.288;2023-03-12T14:06:27;12.80;51.30
21092;DHT22;10704;42.678;23.288;2023-03-12T14:09:20;12.50;50.90
21092;DHT22;10704;42.678;23.288;2023-03-12T14:12:15;12.40;51.10
21092;DHT22;10704;42.678;23.288;2023-03-12T14:17:28;12.20;49.80
21092;DHT22;10704;42.678;23.288;2023-03-12T14:20:02;12.50;50.50
21092;DHT22;10704;42.678;23.288;2023-03-12T14:22:35;12.00;49.70
21092;DHT22;10704;42.678;23.288;2023-03-12T14:27:38;11.40;52.30
21092;DHT22;10704;42.678;23.288;2023-03-12T14:30:46;11.10;51.00
21092;DHT22;10704;42.678;23.288;2023-03-12T14:33:04;10.50;52.00
21092;DHT22;10704;42.678;23.288;2023-03-12T14:35:41;10.00;53.10
21092;DHT22;10704;42.678;23.288;2023-03-12T14:38:19;11.00;54.60
21092;DHT22;10704;42.678;23.288;2023-03-12T14:41:18;11.50;51.30
21092;DHT22;10704;42.678;23.288;2023-03-12T14:43:51;11.30;51.70
21092;DHT22;10704;42.678;23.288;2023-03-12T14:46:23;11.20;50.60
21092;DHT22;10704;42.678;23.288;2023-03-12T14:48:51;10.50;52.70
21092;DHT22;10704;42.678;23.288;2023-03-12T14:51:27;10.50;53.50
21092;DHT22;10704;42.678;23.288;2023-03-12T14:53:54;11.20;54.60
21092;DHT22;10704;42.678;23.288;2023-03-12T14:58:50;11.00;51.70
21092;DHT22;10704;42.678;23.288;2023-03-12T15:04:13;10.10;54.60
21092;DHT22;10704;42.678;23.288;2023-03-12T15:07:00;10.10;53.40
21092;DHT22;10704;42.678;23.288;2023-03-12T15:09:33;9.90;53.20
21092;DHT22;10704;42.678;23.288;2023-03-12T15:12:02;9.60;54.50
21092;DHT22;10704;42.678;23.288;2023-03-12T15:14:38;9.10;54.70
21092;DHT22;10704;42.678;23.288;2023-03-12T15:17:26;9.30;56.30
21092;DHT22;10704;42.678;23.288;2023-03-12T15:22:45;10.80;54.30
21092;DHT22;10704;42.678;23.288;2023-03-12T15:27:58;11.20;53.80
21092;DHT22;10704;42.678;23.288;2023-03-12T15:30:26;11.30;52.90
21092;DHT22;10704;42.678;23.288;2023-03-12T15:38:56;9.50;54.80
21092;DHT22;10704;42.678;23.288;2023-03-12T15:41:42;9.70;56.10
21092;DHT22;10704;42.678;23.288;2023-03-12T15:44:22;9.90;55.60
21092;DHT22;10704;42.678;23.288;2023-03-12T15:46:55;10.00;57.00
21092;DHT22;10704;42.678;23.288;2023-03-12T15:49:30;9.70;55.50
21092;DHT22;10704;42.678;23.288;2023-03-12T15:55:02;9.20;58.30
21092;DHT22;10704;42.678;23.288;2023-03-12T15:57:29;8.70;57.70
21092;DHT22;10704;42.678;23.288;2023-03-12T16:05:22;7.80;59.90
21092;DHT22;10704;42.678;23.288;2023-03-12T16:07:49;7.90;61.60
21092;DHT22;10704;42.678;23.288;2023-03-12T16:10:18;7.80;61.10
21092;DHT22;10704;42.678;23.288;2023-03-12T16:12:45;7.60;62.50
21092;DHT22;10704;42.678;23.288;2023-03-12T16:15:13;7.50;61.60
21092;DHT22;10704;42.678;23.288;2023-03-12T16:17:39;7.40;61.40
21092;DHT22;10704;42.678;23.288;2023-03-12T16:20:08;7.10;62.00
21092;DHT22;10704;42.678;23.288;2023-03-12T16:22:35;6.90;62.10
21092;DHT22;10704;42.678;23.288;2023-03-12T16:25:01;6.80;64.30
21092;DHT22;10704;42.678;23.288;2023-03-12T16:27:27;6.80;63.80
21092;DHT22;10704;42.678;23.288;2023-03-12T16:29:53;6.60;64.20
21092;DHT22;10704;42.678;23.288;2023-03-12T16:32:19;6.50;64.80
21092;DHT22;10704;42.678;23.288;2023-03-12T16:34:44;6.50;65.20
21092;DHT22;10704;42.678;23.288;2023-03-12T16:37:11;6.40;64.00
21092;DHT22;10704;42.678;23.288;2023-03-12T16:39:38;6.30;64.60
21092;DHT22;10704;42.678;23.288;2023-03-12T16:42:20;6.20;63.70
21092;DHT22;10704;42.678;23.288;2023-03-12T16:44:46;6.10;64.10
21092;DHT22;10704;42.678;23.288;2023-03-12T16:47:12;6.10;64.30
21092;DHT22;10704;42.678;23.288;2023-03-12T16:49:38;6.00;64.70
21092;DHT22;10704;42.678;23.288;2023-03-12T16:52:22;6.10;64.80
21092;DHT22;10704;42.678;23.288;2023-03-12T16:54:48;6.00;65.60
21092;DHT22;10704;42.678;23.288;2023-03-12T16:57:25;6.00;65.50
21092;DHT22;10704;42.678;23.288;2023-03-12T16:59:52;5.80;66.00
21092;DHT22;10704;42.678;23.288;2023-03-12T17:02:18;5.90;66.20
21092;DHT22;10704;42.678;23.288;2023-03-12T17:04:46;5.90;66.70
21092;DHT22;10704;42.678;23.288;2023-03-12T17:07:13;5.90;65.90
21092;DHT22;10704;42.678;23.288;2023-03-12T17:09:39;5.80;65.90
21092;DHT22;10704;42.678;23.288;2023-03-12T17:12:08;5.80;66.60
21092;DHT22;10704;42.678;23.288;2023-03-12T17:14:37;5.80;66.70
21092;DHT22;10704;42.678;23.288;2023-03-12T17:17:02;5.80;67.10
21092;DHT22;10704;42.678;23.288;2023-03-12T17:19:28;5.70;67.00
21092;DHT22;10704;42.678;23.288;2023-03-12T17:21:54;5.70;67.80
21092;DHT22;10704;42.678;23.288;2023-03-12T17:24:20;5.70;68.00
21092;DHT22;10704;42.678;23.288;2023-03-12T17:26:52;5.60;68.40
21092;DHT22;10704;42.678;23.288;2023-03-12T17:29:18;5.70;68.60
21092;DHT22;10704;42.678;23.288;2023-03-12T17:31:44;5.60;68.20
21092;DHT22;10704;42.678;23.288;2023-03-12T17:34:10;5.60;68.90
21092;DHT22;10704;42.678;23.288;2023-03-12T17:36:36;5.50;69.00
21092;DHT22;10704;42.678;23.288;2023-03-12T17:39:02;5.40;68.90
21092;DHT22;10704;42.678;23.288;2023-03-12T17:41:30;5.40;69.30